Time;durP1;ratioP1;P1;durP2;ratioP2;P2;SDS_P1;SDS_P2;PMS_P1;PMS_P2;Temp;Humidity;BMP_temperature;BMP_pressure;BME280_temperature;BME280_humidity;BME280_pressure;Samples;Min_cycle;Max_cycle;Signal;HPM_P1;HPM_P2
2023/09/11 00:01:32;;;;;;;24.30;17.25;;;;;;;22.45;100.00;101215.97;5093935;28;20093;-68
2023/09/11 00:03:58;;;;;;;24.35;16.48;;;;;;;22.51;100.00;101222.91;5093467;28;20030;-71
2023/09/11 00:06:27;;;;;;;28.30;17.27;;;;;;;22.43;100.00;101211.59;5093371;28;20028;-70
2023/09/11 00:08:53;;;;;;;28.65;16.35;;;;;;;22.38;100.00;101209.09;5093454;28;20039;-71
2023/09/11 00:11:18;;;;;;;26.75;16.15;;;;;;;22.26;100.00;101213.06;5093735;28;20442;-69
2023/09/11 00:13:44;;;;;;;27.35;15.98;;;;;;;22.10;100.00;101201.16;5093467;28;20020;-71
2023/09/11 00:16:09;;;;;;;25.40;16.90;;;;;;;22.14;100.00;101208.16;5093399;28;20036;-70
2023/09/11 00:18:35;;;;;;;26.70;15.90;;;;;;;22.04;100.00;101204.06;5093390;28;20059;-71
2023/09/11 00:21:00;;;;;;;23.90;16.92;;;;;;;22.08;100.00;101209.28;5093339;28;20360;-71
2023/09/11 00:23:26;;;;;;;26.13;16.65;;;;;;;22.14;100.00;101202.78;5093310;28;20024;-71
2023/09/11 00:25:51;;;;;;;28.15;16.48;;;;;;;22.05;100.00;101192.38;5093049;28;20063;-71
2023/09/11 00:28:16;;;;;;;25.98;15.45;;;;;;;22.09;100.00;101204.75;5093060;28;20057;-71
2023/09/11 00:30:42;;;;;;;28.10;15.82;;;;;;;22.03;100.00;101197.81;5093130;28;20454;-71
2023/09/11 00:33:07;;;;;;;27.05;16.05;;;;;;;21.90;100.00;101189.34;5092968;28;20065;-71
2023/09/11 00:35:32;;;;;;;23.70;15.30;;;;;;;21.90;100.00;101200.09;5092857;28;20035;-68
2023/09/11 00:37:58;;;;;;;27.67;16.10;;;;;;;21.80;100.00;101197.78;5093099;28;20055;-71
2023/09/11 00:40:23;;;;;;;24.73;15.82;;;;;;;21.76;100.00;101203.28;5092917;28;20036;-70
2023/09/11 00:42:48;;;;;;;26.45;15.68;;;;;;;21.73;100.00;101200.72;5092861;28;20109;-70
2023/09/11 00:45:14;;;;;;;24.80;15.98;;;;;;;21.70;100.00;101197.28;5093079;28;20374;-71
2023/09/11 00:47:41;;;;;;;24.20;15.82;;;;;;;21.58;100.00;101194.09;5092736;28;20495;-70
2023/09/11 00:50:08;;;;;;;25.63;16.23;;;;;;;21.53;100.00;101196.06;5092681;28;20138;-71
2023/09/11 00:52:34;;;;;;;29.92;16.38;;;;;;;21.51;100.00;101192.56;5091958;28;20483;-71
2023/09/11 00:54:59;;;;;;;25.20;15.63;;;;;;;21.44;100.00;101185.59;5092690;28;20075;-70
2023/09/11 00:57:26;;;;;;;25.48;16.05;;;;;;;21.38;100.00;101196.59;5092863;28;20031;-73
2023/09/11 00:59:51;;;;;;;25.52;16.17;;;;;;;21.36;100.00;101199.31;5091829;28;20359;-73
2023/09/11 01:02:18;;;;;;;26.83;16.48;;;;;;;21.36;100.00;101198.44;5092568;28;20035;-72
2023/09/11 01:04:45;;;;;;;25.05;15.95;;;;;;;21.33;100.00;101183.28;5088779;28;20492;-73
2023/09/11 01:07:14;;;;;;;25.80;16.02;;;;;;;21.32;100.00;101188.72;5091389;28;20028;-73
2023/09/11 01:09:40;;;;;;;24.52;15.07;;;;;;;21.35;100.00;101186.81;5092869;28;20036;-74
2023/09/11 01:12:06;;;;;;;24.98;15.35;;;;;;;21.28;100.00;101185.25;5092755;28;20036;-73
2023/09/11 01:14:32;;;;;;;24.23;15.38;;;;;;;21.27;100.00;101188.00;5092870;28;20407;-74
2023/09/11 01:17:34;;;;;;;27.38;15.85;;;;;;;21.27;100.00;101188.00;5087212;28;20475;-74
2023/09/11 01:20:24;;;;;;;24.83;15.38;;;;;;;21.29;100.00;101188.81;5092590;28;20028;-74
2023/09/11 01:23:21;;;;;;;25.25;15.73;;;;;;;21.21;100.00;101189.97;5091657;28;20103;-72
2023/09/11 01:26:11;;;;;;;25.20;15.02;;;;;;;21.11;100.00;101188.53;5091496;28;20032;-68
2023/09/11 01:28:54;;;;;;;25.05;15.23;;;;;;;21.04;100.00;101192.34;5089667;28;20092;-69
2023/09/11 01:31:19;;;;;;;24.50;14.13;;;;;;;21.01;100.00;101187.09;5092660;28;20024;-70
2023/09/11 01:33:45;;;;;;;26.38;14.95;;;;;;;20.90;100.00;101185.63;5092577;28;20039;-68
2023/09/11 01:36:10;;;;;;;24.65;14.07;;;;;;;20.93;100.00;101190.03;5092379;28;20174;-71
2023/09/11 01:38:35;;;;;;;25.92;14.77;;;;;;;20.86;100.00;101183.97;5092663;28;20467;-72
2023/09/11 01:41:03;;;;;;;23.92;14.88;;;;;;;20.87;100.00;101184.88;5092338;28;20494;-70
2023/09/11 01:43:34;;;;;;;24.77;14.70;;;;;;;20.81;100.00;101180.59;5088360;28;20032;-69
2023/09/11 01:46:02;;;;;;;24.40;14.75;;;;;;;20.87;100.00;101179.50;5088447;28;20027;-68
2023/09/11 01:48:30;;;;;;;26.48;14.65;;;;;;;20.84;100.00;101180.47;5092448;28;20020;-68
2023/09/11 01:50:56;;;;;;;24.10;14.18;;;;;;;20.89;100.00;101175.81;5092082;28;20050;-71
2023/09/11 01:53:22;;;;;;;24.95;15.38;;;;;;;20.95;100.00;101179.25;5092381;28;20028;-72
2023/09/11 01:55:47;;;;;;;25.48;14.80;;;;;;;20.93;100.00;101178.44;5092668;28;20020;-70
2023/09/11 01:58:13;;;;;;;25.65;14.43;;;;;;;20.81;100.00;101177.91;5095851;28;20360;-69
2023/09/11 02:00:38;;;;;;;23.60;14.20;;;;;;;20.83;100.00;101178.72;5096241;28;20032;-71
2023/09/11 02:03:04;;;;;;;23.45;13.73;;;;;;;20.78;100.00;101169.03;5095914;28;20063;-70
2023/09/11 02:05:29;;;;;;;23.17;13.65;;;;;;;20.83;100.00;101173.34;5095986;28;20032;-67
2023/09/11 02:07:54;;;;;;;22.95;13.70;;;;;;;20.78;100.00;101166.34;5095908;28;20028;-65
2023/09/11 02:10:20;;;;;;;22.40;13.43;;;;;;;20.78;100.00;101175.31;5095537;28;20467;-63
2023/09/11 02:12:46;;;;;;;24.55;13.85;;;;;;;20.73;100.00;101169.19;5095548;28;20077;-60
2023/09/11 02:15:11;;;;;;;25.60;14.15;;;;;;;20.59;100.00;101168.75;5095644;28;20028;-64
2023/09/11 02:17:37;;;;;;;24.52;13.48;;;;;;;20.51;100.00;101167.19;5095431;28;20073;-70
2023/09/11 02:20:04;;;;;;;22.45;13.98;;;;;;;20.53;100.00;101170.72;5095716;28;20041;-68
2023/09/11 02:22:29;;;;;;;24.63;14.32;;;;;;;20.40;100.00;101163.94;5091518;28;20033;-71
2023/09/11 02:24:54;;;;;;;24.65;14.05;;;;;;;20.36;100.00;101157.81;5095392;28;20044;-71
2023/09/11 02:27:20;;;;;;;25.75;14.50;;;;;;;20.26;100.00;101163.53;5094029;28;20028;-71
2023/09/11 02:29:45;;;;;;;26.90;14.52;;;;;;;20.25;100.00;101156.41;5095305;28;20032;-69
2023/09/11 02:32:11;;;;;;;25.25;13.80;;;;;;;20.19;100.00;101152.97;5095116;28;20107;-70
2023/09/11 02:34:36;;;;;;;23.02;13.35;;;;;;;20.18;100.00;101153.00;5095220;28;20088;-71
2023/09/11 02:37:01;;;;;;;25.35;14.85;;;;;;;20.16;100.00;101154.88;5095069;28;20039;-71
2023/09/11 02:39:28;;;;;;;24.63;14.13;;;;;;;20.06;100.00;101154.25;5095031;28;20028;-70
2023/09/11 02:41:53;;;;;;;24.48;14.02;;;;;;;20.05;100.00;101152.50;5095385;28;20032;-70
2023/09/11 02:44:19;;;;;;;24.15;14.48;;;;;;;20.09;100.00;101155.97;5093843;28;20032;-70
2023/09/11 02:46:44;;;;;;;23.85;13.63;;;;;;;20.07;100.00;101153.34;5094880;28;20028;-70
2023/09/11 02:49:09;;;;;;;23.15;13.13;;;;;;;20.16;100.00;101155.75;5094823;28;20467;-69
2023/09/11 02:51:35;;;;;;;25.85;13.88;;;;;;;20.13;100.00;101153.16;5094828;28;20149;-71
2023/09/11 02:54:00;;;;;;;24.17;13.80;;;;;;;20.09;100.00;101153.31;5094703;28;20055;-71
2023/09/11 02:56:26;;;;;;;24.70;13.18;;;;;;;20.01;100.00;101150.88;5094961;28;20028;-69
2023/09/11 02:58:51;;;;;;;26.95;13.50;;;;;;;19.99;100.00;101153.59;5094672;28;20046;-68
2023/09/11 03:01:17;;;;;;;22.60;13.15;;;;;;;19.91;100.00;101152.06;5094603;28;20020;-69
2023/09/11 03:03:42;;;;;;;22.70;13.05;;;;;;;19.95;100.00;101151.03;5094708;28;20379;-70
2023/09/11 03:06:08;;;;;;;23.70;12.93;;;;;;;19.94;100.00;101144.78;5094535;28;20478;-70
2023/09/11 03:08:33;;;;;;;23.92;13.05;;;;;;;19.93;100.00;101147.53;5094426;28;20469;-64
2023/09/11 03:11:10;;;;;;;22.48;13.10;;;;;;;19.87;100.00;101143.22;5090470;28;20390;-71
2023/09/11 03:13:36;;;;;;;23.08;13.13;;;;;;;19.80;100.00;101136.25;5091167;28;20070;-70
2023/09/11 03:16:12;;;;;;;23.10;14.00;;;;;;;19.73;100.00;101140.91;5094478;28;20475;-72
2023/09/11 03:18:38;;;;;;;23.30;13.45;;;;;;;19.72;100.00;101132.88;5091586;28;20121;-73
2023/09/11 03:21:05;;;;;;;23.10;12.80;;;;;;;19.67;100.00;101130.34;5094723;28;20471;-73
2023/09/11 03:23:31;;;;;;;25.35;13.90;;;;;;;19.63;100.00;101134.03;5094184;28;20028;-72
2023/09/11 03:25:56;;;;;;;24.20;13.95;;;;;;;19.60;100.00;101126.09;5093016;28;20032;-73
2023/09/11 03:28:25;;;;;;;24.90;12.80;;;;;;;19.49;100.00;101121.91;5093910;28;20027;-72
2023/09/11 03:30:51;;;;;;;24.23;13.00;;;;;;;19.46;100.00;101121.13;5094021;28;20020;-73
2023/09/11 03:33:17;;;;;;;24.85;13.38;;;;;;;19.37;100.00;101122.28;5094153;28;20039;-72
2023/09/11 03:35:42;;;;;;;24.45;12.88;;;;;;;19.29;100.00;101124.28;5093912;28;20055;-73
2023/09/11 03:38:07;;;;;;;22.10;13.20;;;;;;;19.30;100.00;101123.38;5094196;28;20055;-72
2023/09/11 03:40:33;;;;;;;24.65;14.05;;;;;;;19.20;100.00;101124.53;5093996;28;20051;-72
2023/09/11 03:42:58;;;;;;;26.25;14.45;;;;;;;19.17;100.00;101120.13;5093851;28;20036;-72
2023/09/11 03:45:23;;;;;;;24.40;13.95;;;;;;;19.25;100.00;101117.22;5093781;28;20040;-72
2023/09/11 03:47:49;;;;;;;23.27;13.55;;;;;;;19.19;100.00;101126.31;5093848;28;20593;-72
2023/09/11 03:50:14;;;;;;;24.25;14.02;;;;;;;19.08;100.00;101123.06;5093394;28;20055;-72
2023/09/11 03:52:40;;;;;;;24.30;14.40;;;;;;;19.12;100.00;101120.25;5093576;28;20070;-72
2023/09/11 03:55:05;;;;;;;24.08;14.48;;;;;;;19.06;100.00;101115.06;5093793;28;20032;-72
2023/09/11 03:57:31;;;;;;;24.02;14.13;;;;;;;19.09;100.00;101114.09;5092644;28;20520;-72
2023/09/11 03:59:56;;;;;;;24.45;13.90;;;;;;;19.15;100.00;101112.13;5075191;28;20036;-72
2023/09/11 04:02:21;;;;;;;24.27;13.48;;;;;;;19.13;100.00;101099.69;5093858;28;20103;-72
2023/09/11 04:04:47;;;;;;;24.30;13.82;;;;;;;19.12;100.00;101103.28;5093514;28;20039;-72
2023/09/11 04:07:12;;;;;;;23.88;13.13;;;;;;;19.06;100.00;101096.31;5093778;28;20499;-72
2023/09/11 04:09:37;;;;;;;26.17;13.75;;;;;;;19.08;100.00;101097.16;5093116;28;20036;-72
2023/09/11 04:12:03;;;;;;;23.80;13.77;;;;;;;19.05;100.00;101094.56;5093273;28;20107;-72
2023/09/11 04:14:28;;;;;;;23.73;12.65;;;;;;;19.09;100.00;101090.88;5093462;28;20059;-72
2023/09/11 04:16:54;;;;;;;23.52;13.32;;;;;;;19.03;100.00;101096.38;5093181;28;20063;-72
2023/09/11 04:19:19;;;;;;;22.88;12.95;;;;;;;19.03;100.00;101091.03;5091560;28;20039;-72
2023/09/11 04:21:45;;;;;;;24.63;13.00;;;;;;;18.98;100.00;101087.59;5093513;28;20028;-63
2023/09/11 04:24:12;;;;;;;22.75;12.95;;;;;;;19.04;100.00;101087.44;5091770;28;20047;-65
2023/09/11 04:26:43;;;;;;;24.75;13.10;;;;;;;19.01;100.00;101090.19;5093044;28;20069;-65
2023/09/11 04:29:10;;;;;;;24.02;13.30;;;;;;;19.01;100.00;101081.28;5092012;28;20024;-64
2023/09/11 04:31:36;;;;;;;24.35;13.38;;;;;;;19.07;100.00;101079.31;5092980;28;20055;-68
2023/09/11 04:34:01;;;;;;;23.98;14.13;;;;;;;19.07;100.00;101076.63;5091765;28;20024;-68
2023/09/11 04:36:27;;;;;;;25.83;14.57;;;;;;;19.05;100.00;101073.13;5093320;28;20032;-64
2023/09/11 04:38:52;;;;;;;24.02;14.30;;;;;;;18.99;100.00;101086.69;5092842;28;20069;-69
2023/09/11 04:41:17;;;;;;;23.20;13.25;;;;;;;18.95;100.00;101083.19;5092882;28;20032;-68
2023/09/11 04:43:43;;;;;;;23.77;13.73;;;;;;;19.09;100.00;101088.19;5092996;28;20111;-67
2023/09/11 04:46:08;;;;;;;23.50;13.32;;;;;;;19.12;100.00;101084.53;5093055;28;20105;-68
2023/09/11 04:48:34;;;;;;;23.77;13.13;;;;;;;19.03;100.00;101091.03;5092738;28;20027;-66
2023/09/11 04:50:59;;;;;;;22.52;13.20;;;;;;;19.08;100.00;101093.59;5092827;28;20072;-66
2023/09/11 04:53:25;;;;;;;24.52;13.40;;;;;;;19.15;100.00;101095.19;5092977;28;20043;-66
2023/09/11 04:55:50;;;;;;;26.23;13.98;;;;;;;19.16;100.00;101091.56;5092621;28;20111;-67
2023/09/11 04:58:16;;;;;;;24.52;12.05;;;;;;;19.12;100.00;101087.22;5092925;28;20028;-68
2023/09/11 05:00:42;;;;;;;24.48;13.27;;;;;;;19.06;100.00;101090.97;5092662;28;20386;-67
2023/09/11 05:03:07;;;;;;;22.35;12.57;;;;;;;19.12;100.00;101090.78;5092922;28;20028;-67
2023/09/11 05:05:38;;;;;;;23.30;13.10;;;;;;;19.12;100.00;101095.25;5091366;28;20020;-71
2023/09/11 05:08:06;;;;;;;23.88;13.50;;;;;;;19.01;100.00;101097.38;5084564;28;20031;-70
2023/09/11 05:10:31;;;;;;;24.30;13.77;;;;;;;19.02;100.00;101097.31;5091754;28;20024;-67
2023/09/11 05:12:57;;;;;;;24.50;13.10;;;;;;;19.07;100.00;101092.69;5092619;28;20040;-69
2023/09/11 05:15:22;;;;;;;25.67;13.60;;;;;;;19.16;100.00;101091.56;5092445;28;20049;-67
2023/09/11 05:17:47;;;;;;;24.80;13.57;;;;;;;19.07;100.00;101102.53;5088291;28;20058;-65
2023/09/11 05:20:13;;;;;;;24.50;12.60;;;;;;;19.11;100.00;101105.09;5092330;28;20059;-69
2023/09/11 05:22:39;;;;;;;25.08;13.35;;;;;;;19.22;100.00;101098.56;5092617;28;20033;-67
2023/09/11 05:25:05;;;;;;;23.63;13.85;;;;;;;19.22;100.00;101101.25;5092509;28;20031;-69
2023/09/11 05:27:30;;;;;;;23.65;13.10;;;;;;;19.29;100.00;101105.50;5092224;28;20024;-70
2023/09/11 05:29:56;;;;;;;23.13;13.25;;;;;;;19.37;100.00;101097.25;5089755;28;20082;-73
2023/09/11 05:32:23;;;;;;;23.65;13.32;;;;;;;19.41;100.00;101102.50;5094137;28;20467;-65
2023/09/11 05:34:48;;;;;;;24.05;13.73;;;;;;;19.48;100.00;101097.81;5092486;28;20067;-71
2023/09/11 05:37:14;;;;;;;25.02;13.48;;;;;;;19.46;100.00;101103.25;5096036;28;20056;-71
2023/09/11 05:39:40;;;;;;;23.92;12.52;;;;;;;19.49;100.00;101103.16;5096083;28;20539;-67
2023/09/11 05:42:05;;;;;;;24.48;12.27;;;;;;;19.52;100.00;101103.06;5091428;28;20475;-70
2023/09/11 05:44:31;;;;;;;24.55;12.60;;;;;;;19.50;100.00;101107.59;5095937;28;20031;-66
2023/09/11 05:46:56;;;;;;;24.20;12.00;;;;;;;19.57;100.00;101102.94;5094867;28;20444;-68
2023/09/11 05:49:22;;;;;;;24.50;12.25;;;;;;;19.63;100.00;101112.59;5095833;28;20045;-71
2023/09/11 05:51:48;;;;;;;23.33;12.38;;;;;;;19.71;100.00;101112.38;5095351;28;20387;-67
2023/09/11 05:54:13;;;;;;;23.85;12.10;;;;;;;19.73;100.00;101108.75;5093160;28;20368;-68
2023/09/11 05:56:38;;;;;;;26.40;12.57;;;;;;;19.70;100.00;101111.47;5094568;28;20024;-70
2023/09/11 05:59:04;;;;;;;23.65;11.93;;;;;;;19.79;100.00;101113.03;5095596;28;20039;-71
2023/09/11 06:01:29;;;;;;;25.15;12.60;;;;;;;19.85;100.00;101119.13;5092228;28;20028;-67
2023/09/11 06:03:54;;;;;;;25.42;12.25;;;;;;;19.91;100.00;101125.25;5095753;28;20529;-68
2023/09/11 06:06:20;;;;;;;23.75;12.18;;;;;;;19.93;100.00;101118.00;5091237;28;20429;-68
2023/09/11 06:08:45;;;;;;;24.42;11.80;;;;;;;19.98;100.00;101121.41;5094413;28;20024;-69
2023/09/11 06:11:10;;;;;;;24.38;11.60;;;;;;;20.03;100.00;101120.34;5095435;28;20024;-69
2023/09/11 06:13:36;;;;;;;23.38;11.18;;;;;;;20.03;100.00;101132.91;5095605;28;20066;-68
2023/09/11 06:16:01;;;;;;;25.65;11.70;;;;;;;20.03;100.00;101130.22;5094018;28;20035;-68
2023/09/11 06:18:27;;;;;;;24.45;11.32;;;;;;;20.04;100.00;101129.31;5092830;28;20032;-64
2023/09/11 06:20:52;;;;;;;24.48;11.68;;;;;;;20.04;100.00;101129.31;5088899;28;20028;-65
2023/09/11 06:23:18;;;;;;;23.05;11.20;;;;;;;20.06;100.00;101127.44;5089659;28;20119;-64
2023/09/11 06:25:43;;;;;;;24.08;11.60;;;;;;;20.13;100.00;101125.44;5095307;28;20382;-66
2023/09/11 06:28:09;;;;;;;23.52;11.38;;;;;;;20.19;100.00;101123.44;5095350;28;20029;-66
2023/09/11 06:30:35;;;;;;;23.63;11.88;;;;;;;20.17;100.00;101125.31;5089321;28;20075;-66
2023/09/11 06:33:00;;;;;;;23.75;11.98;;;;;;;20.21;100.00;101120.69;5094819;28;20075;-66
2023/09/11 06:35:26;;;;;;;26.30;12.50;;;;;;;20.22;100.00;101126.97;5093927;28;20032;-67
2023/09/11 06:37:51;;;;;;;23.67;12.02;;;;;;;20.22;100.00;101135.03;5095130;28;20522;-67
2023/09/11 06:40:16;;;;;;;23.30;11.30;;;;;;;20.24;100.00;101130.47;5090682;28;20047;-68
2023/09/11 06:42:42;;;;;;;22.75;11.77;;;;;;;20.24;100.00;101133.16;5089837;28;20119;-69
2023/09/11 06:45:08;;;;;;;22.10;11.40;;;;;;;20.27;100.00;101130.38;5095051;28;20062;-66
2023/09/11 06:47:33;;;;;;;23.65;11.75;;;;;;;20.26;100.00;101134.00;5094856;28;20035;-65
2023/09/11 06:49:59;;;;;;;23.80;12.20;;;;;;;20.25;100.00;101134.91;5094792;28;20048;-68
2023/09/11 06:52:24;;;;;;;23.92;12.07;;;;;;;20.20;100.00;101138.63;5094539;28;20132;-68
2023/09/11 06:54:50;;;;;;;24.25;11.50;;;;;;;20.22;100.00;101135.88;5091823;28;20032;-67
2023/09/11 06:57:15;;;;;;;23.85;12.57;;;;;;;20.20;100.00;101135.06;5094447;28;20051;-61
2023/09/11 06:59:40;;;;;;;25.23;11.80;;;;;;;20.23;100.00;101139.44;5094391;28;20038;-63
2023/09/11 07:02:06;;;;;;;23.88;11.98;;;;;;;20.24;100.00;101141.22;5094643;28;20036;-65
2023/09/11 07:04:32;;;;;;;24.63;12.20;;;;;;;20.30;100.00;101138.31;5094401;28;20055;-66
2023/09/11 07:06:57;;;;;;;23.00;12.07;;;;;;;20.31;100.00;101132.03;5093370;28;20081;-67
2023/09/11 07:09:23;;;;;;;24.38;12.68;;;;;;;20.33;100.00;101132.88;5094628;28;20039;-67
2023/09/11 07:11:56;;;;;;;25.38;13.18;;;;;;;20.39;100.00;101121.94;5105903;28;20035;-67
2023/09/11 07:14:22;;;;;;;24.73;13.13;;;;;;;20.41;100.00;101127.25;5090751;28;20426;-64
2023/09/11 07:16:48;;;;;;;24.35;12.80;;;;;;;20.44;100.00;101122.66;5094389;28;20024;-64
2023/09/11 07:19:13;;;;;;;22.70;13.02;;;;;;;20.51;100.00;101124.22;5090958;28;20395;-67
2023/09/11 07:21:40;;;;;;;24.42;13.60;;;;;;;20.57;100.00;101124.97;5094020;28;20020;-66
2023/09/11 07:24:06;;;;;;;25.10;13.60;;;;;;;20.63;100.00;101119.38;5094312;28;20032;-67
2023/09/11 07:26:31;;;;;;;25.67;14.02;;;;;;;20.69;100.00;101120.09;5093963;28;20110;-69
2023/09/11 07:29:01;;;;;;;25.80;13.45;;;;;;;20.77;100.00;101119.81;5089674;28;20387;-65
2023/09/11 07:31:27;;;;;;;25.20;13.75;;;;;;;20.86;100.00;101127.56;5092004;28;20475;-65
2023/09/11 07:33:52;;;;;;;24.27;14.43;;;;;;;20.93;100.00;101127.38;5093681;28;20036;-65
2023/09/11 07:36:19;;;;;;;24.67;14.73;;;;;;;21.00;100.00;101136.94;5093787;28;20467;-62
2023/09/11 07:38:45;;;;;;;26.02;14.68;;;;;;;21.05;100.00;101125.13;5093818;28;20115;-62
2023/09/11 07:41:11;;;;;;;27.35;15.38;;;;;;;21.11;100.00;101129.41;5093271;28;20119;-67
2023/09/11 07:43:37;;;;;;;26.67;15.82;;;;;;;21.17;100.00;101131.91;5089584;28;20024;-63
2023/09/11 07:46:02;;;;;;;26.40;15.15;;;;;;;21.27;100.00;101142.31;5093777;28;20386;-63
2023/09/11 07:48:27;;;;;;;26.38;15.63;;;;;;;21.35;100.00;101137.53;5093850;28;20120;-62
2023/09/11 07:50:56;;;;;;;26.55;16.10;;;;;;;21.46;100.00;101138.00;5091997;28;20591;-61
2023/09/11 07:53:22;;;;;;;26.83;16.15;;;;;;;21.57;100.00;101143.03;5092774;28;20054;-68
2023/09/11 07:55:48;;;;;;;27.52;17.08;;;;;;;21.66;100.00;101147.19;5088946;28;20063;-65
2023/09/11 07:58:13;;;;;;;28.17;17.15;;;;;;;21.61;100.00;101149.16;5093492;28;20028;-66
2023/09/11 08:00:39;;;;;;;27.88;18.08;;;;;;;21.57;100.00;101153.81;5093555;28;20032;-70
2023/09/11 08:03:04;;;;;;;28.50;17.75;;;;;;;21.58;100.00;101153.75;5093131;28;20387;-69
2023/09/11 08:05:30;;;;;;;29.58;18.42;;;;;;;21.72;100.00;101157.72;5093043;28;20386;-70
2023/09/11 08:07:55;;;;;;;28.52;20.10;;;;;;;21.76;100.00;101164.75;5089239;28;20360;-69
2023/09/11 08:10:21;;;;;;;28.75;20.13;;;;;;;21.76;100.00;101157.56;5093444;28;20036;-70
2023/09/11 08:12:46;;;;;;;28.52;20.90;;;;;;;21.81;100.00;101162.75;5093452;28;20028;-69
2023/09/11 08:15:12;;;;;;;29.40;20.40;;;;;;;21.97;100.00;101164.88;5092047;28;20028;-69
2023/09/11 08:17:37;;;;;;;29.65;20.80;;;;;;;22.11;100.00;101170.59;5087383;28;20134;-70
2023/09/11 08:20:03;;;;;;;29.25;20.95;;;;;;;22.24;100.00;101169.19;5086172;28;20125;-71
2023/09/11 08:22:28;;;;;;;30.80;21.88;;;;;;;22.36;100.00;101175.06;5092764;28;20498;-70
2023/09/11 08:24:54;;;;;;;30.30;21.88;;;;;;;22.39;100.00;101169.56;5093158;28;20352;-70
2023/09/11 08:27:20;;;;;;;28.38;20.27;;;;;;;22.42;100.00;101166.72;5091957;28;20059;-70
2023/09/11 08:29:46;;;;;;;28.23;19.95;;;;;;;22.44;100.00;101165.75;5093119;28;20024;-70
2023/09/11 08:32:11;;;;;;;28.42;20.58;;;;;;;22.52;100.00;101159.16;5093001;28;20448;-70
2023/09/11 08:34:36;;;;;;;30.35;20.80;;;;;;;22.61;100.00;101158.78;5092978;28;20081;-70
2023/09/11 08:37:02;;;;;;;29.92;21.30;;;;;;;22.79;100.00;101166.09;5092944;28;20399;-70
2023/09/11 08:39:27;;;;;;;31.00;21.48;;;;;;;22.93;100.00;101162.81;5093017;28;20028;-70
2023/09/11 08:41:57;;;;;;;28.88;21.60;;;;;;;23.22;100.00;101158.03;5093309;28;20035;-67
2023/09/11 08:44:22;;;;;;;29.80;20.92;;;;;;;24.05;100.00;101158.81;5088781;28;20470;-68
2023/09/11 08:46:49;;;;;;;29.05;20.67;;;;;;;24.54;100.00;101161.00;5092992;28;20046;-68
2023/09/11 08:49:20;;;;;;;29.38;19.67;;;;;;;25.25;100.00;101165.53;5092928;28;20056;-69
2023/09/11 08:51:55;;;;;;;27.88;19.25;;;;;;;25.66;100.00;101170.63;5086539;28;20049;-65
2023/09/11 08:54:27;;;;;;;29.40;19.15;;;;;;;25.99;100.00;101169.72;5082141;28;20025;-67
2023/09/11 08:56:53;;;;;;;28.55;18.90;;;;;;;26.29;100.00;101169.00;5092735;28;20511;-64
2023/09/11 08:59:21;;;;;;;27.10;18.17;;;;;;;26.89;100.00;101172.81;5088308;28;20055;-61
2023/09/11 09:01:48;;;;;;;28.75;17.90;;;;;;;27.65;100.00;101171.84;5092530;28;20028;-68
2023/09/11 09:04:16;;;;;;;27.83;18.13;;;;;;;27.64;100.00;101175.56;5089307;28;20035;-64
2023/09/11 09:06:43;;;;;;;28.73;18.55;;;;;;;27.75;100.00;101173.03;5086855;28;20021;-66
2023/09/11 09:09:08;;;;;;;27.33;18.27;;;;;;;28.09;100.00;101170.03;5086453;28;20433;-62
2023/09/11 09:11:36;;;;;;;28.98;17.83;;;;;;;28.69;100.00;101166.16;5087319;28;20024;-62
2023/09/11 09:14:06;;;;;;;26.38;16.15;;;;;;;29.19;100.00;101167.25;5096860;28;20032;-66
2023/09/11 09:16:31;;;;;;;25.60;15.77;;;;;;;28.98;100.00;101166.88;5095478;28;20028;-63
2023/09/11 09:18:57;;;;;;;26.45;16.58;;;;;;;28.58;100.00;101171.41;5096442;28;20031;-72
2023/09/11 09:21:25;;;;;;;25.08;15.65;;;;;;;28.90;100.00;101171.13;5096407;28;20032;-62
2023/09/11 09:23:54;;;;;;;25.67;16.00;;;;;;;29.44;100.00;101161.97;5092956;28;20472;-62
2023/09/11 09:26:21;;;;;;;26.70;16.90;;;;;;;29.71;100.00;101170.91;5087811;28;20035;-64
2023/09/11 09:28:48;;;;;;;25.95;16.35;;;;;;;30.35;100.00;101172.69;5094344;28;20028;-65
2023/09/11 09:31:24;;;;;;;23.70;14.38;;;;;;;30.76;100.00;101178.78;5096343;28;20038;-62
2023/09/11 09:33:55;;;;;;;24.45;15.15;;;;;;;31.12;100.00;101185.16;5096131;28;20073;-64
2023/09/11 09:36:21;;;;;;;24.60;14.77;;;;;;;31.59;100.00;101182.44;5091997;28;20024;-63
2023/09/11 09:38:47;;;;;;;24.52;15.93;;;;;;;31.43;100.00;101177.31;5091974;28;20031;-62
2023/09/11 09:41:13;;;;;;;26.00;16.77;;;;;;;31.35;100.00;101177.03;5096343;28;20028;-64
2023/09/11 09:43:38;;;;;;;26.10;15.77;;;;;;;31.71;96.73;101175.13;5095811;28;20111;-63
2023/09/11 09:46:22;;;;;;;25.90;15.18;;;;;;;32.14;100.00;101174.38;5096435;28;20024;-62
2023/09/11 09:48:48;;;;;;;23.20;13.60;;;;;;;32.30;86.94;101177.63;5093176;28;20483;-62
2023/09/11 09:51:13;;;;;;;24.42;14.32;;;;;;;32.14;81.30;101174.38;5095766;28;20052;-64
2023/09/11 09:53:42;;;;;;;22.67;13.02;;;;;;;32.16;81.61;101169.69;5093269;28;20059;-66
2023/09/11 09:56:10;;;;;;;24.85;13.77;;;;;;;32.27;81.02;101174.25;5089542;28;20036;-64
2023/09/11 09:58:38;;;;;;;27.02;14.63;;;;;;;32.41;76.92;101170.38;5084977;28;20020;-62
2023/09/11 10:01:08;;;;;;;23.70;13.77;;;;;;;33.05;74.95;101177.78;5085315;28;20050;-62
2023/09/11 10:03:48;;;;;;;22.30;12.73;;;;;;;33.42;71.96;101176.47;5086010;28;20028;-70
2023/09/11 10:06:19;;;;;;;23.33;12.18;;;;;;;33.92;70.66;101171.16;5088924;28;20032;-65
2023/09/11 10:08:45;;;;;;;25.75;13.48;;;;;;;33.42;68.19;101176.47;5091784;28;20024;-63
2023/09/11 10:11:30;;;;;;;24.33;13.60;;;;;;;33.51;73.67;101172.94;5090985;28;20109;-63
2023/09/11 10:13:57;;;;;;;23.55;12.35;;;;;;;33.76;68.90;101179.88;5095524;28;20084;-65
2023/09/11 10:16:24;;;;;;;23.52;13.88;;;;;;;34.14;64.34;101172.81;5095046;28;20025;-65
2023/09/11 10:18:52;;;;;;;22.77;11.48;;;;;;;34.20;61.89;101176.88;5095117;28;20465;-63
2023/09/11 10:21:18;;;;;;;20.90;10.07;;;;;;;34.07;60.87;101170.78;5095589;28;20112;-68
2023/09/11 10:23:44;;;;;;;23.05;10.10;;;;;;;33.92;63.67;101168.41;5093618;28;20474;-69
2023/09/11 10:26:19;;;;;;;21.75;9.70;;;;;;;34.32;61.44;101166.69;5095292;28;20028;-69
2023/09/11 10:28:48;;;;;;;21.23;8.82;;;;;;;34.74;56.36;101170.06;5095111;28;20030;-68
2023/09/11 10:31:20;;;;;;;20.23;9.45;;;;;;;34.94;57.02;101164.63;5095703;28;20375;-67
2023/09/11 10:33:49;;;;;;;21.17;8.63;;;;;;;35.41;55.27;101172.09;5095474;28;20028;-68
2023/09/11 10:36:20;;;;;;;22.45;9.23;;;;;;;35.32;53.70;101162.00;5095180;28;20031;-68
2023/09/11 10:38:46;;;;;;;21.33;9.00;;;;;;;35.50;53.83;101159.34;5094978;28;20069;-68
2023/09/11 10:41:12;;;;;;;22.60;9.40;;;;;;;35.82;54.41;101153.47;5095287;28;20028;-68
2023/09/11 10:43:38;;;;;;;20.88;9.38;;;;;;;35.24;55.10;101159.94;5094976;28;20086;-68
2023/09/11 10:46:22;;;;;;;22.20;9.80;;;;;;;34.83;59.21;101171.09;5095011;28;20020;-68
2023/09/11 10:48:50;;;;;;;20.55;7.65;;;;;;;34.79;53.42;101163.31;5094845;28;20105;-65
2023/09/11 10:51:16;;;;;;;19.95;8.02;;;;;;;35.45;54.48;101157.06;5094961;28;20126;-68
2023/09/11 10:53:42;;;;;;;20.10;8.43;;;;;;;36.08;53.17;101148.13;5094806;28;20059;-66
2023/09/11 10:56:08;;;;;;;21.73;9.48;;;;;;;36.88;49.64;101154.88;5094708;28;20024;-69
2023/09/11 10:58:35;;;;;;;20.83;9.60;;;;;;;37.34;48.64;101152.88;5094813;28;20032;-64
2023/09/11 11:01:03;;;;;;;21.25;8.70;;;;;;;37.69;46.48;101153.78;5094754;28;20024;-68